sensor_id;sensor_type;location;lat;lon;timestamp;temperature;humidity
5556;DHT22;2801;50.972;7.856;2022-12-04T00:01:17;0.30;99.90
5556;DHT22;2801;50.972;7.856;2022-12-04T00:03:46;0.30;99.90
5556;DHT22;2801;50.972;7.856;2022-12-04T00:06:16;0.30;99.90
5556;DHT22;2801;50.972;7.856;2022-12-04T00:08:45;0.30;99.90
5556;DHT22;2801;50.972;7.856;2022-12-04T00:11:16;0.20;99.90
5556;DHT22;2801;50.972;7.856;2022-12-04T00:13:46;0.30;99.90
5556;DHT22;2801;50.972;7.856;2022-12-04T00:16:19;0.30;99.90
5556;DHT22;2801;50.972;7.856;2022-12-04T00:18:48;0.30;99.90
5556;DHT22;2801;50.972;7.856;2022-12-04T00:21:16;0.30;99.90
5556;DHT22;2801;50.972;7.856;2022-12-04T00:23:44;0.30;99.90
5556;DHT22;2801;50.972;7.856;2022-12-04T00:26:18;0.20;99.90
5556;DHT22;2801;50.972;7.856;2022-12-04T00:28:48;0.20;99.90
5556;DHT22;2801;50.972;7.856;2022-12-04T00:31:22;0.20;99.90
5556;DHT22;2801;50.972;7.856;2022-12-04T00:33:51;0.20;99.90
5556;DHT22;2801;50.972;7.856;2022-12-04T00:36:21;0.10;99.90
5556;DHT22;2801;50.972;7.856;2022-12-04T00:38:49;0.10;99.90
5556;DHT22;2801;50.972;7.856;2022-12-04T00:41:19;0.10;99.90
5556;DHT22;2801;50.972;7.856;2022-12-04T00:43:47;0.10;99.90
5556;DHT22;2801;50.972;7.856;2022-12-04T00:46:15;0.10;99.90
5556;DHT22;2801;50.972;7.856;2022-12-04T00:48:42;0.10;99.90
5556;DHT22;2801;50.972;7.856;2022-12-04T00:51:22;0.10;99.90
5556;DHT22;2801;50.972;7.856;2022-12-04T00:53:51;0.10;99.90
5556;DHT22;2801;50.972;7.856;2022-12-04T00:56:23;0.10;99.90
5556;DHT22;2801;50.972;7.856;2022-12-04T00:58:52;0.10;99.90
5556;DHT22;2801;50.972;7.856;2022-12-04T01:01:21;0.00;99.90
5556;DHT22;2801;50.972;7.856;2022-12-04T01:03:49;0.00;99.90
5556;DHT22;2801;50.972;7.856;2022-12-04T01:08:53;0.00;99.90
5556;DHT22;2801;50.972;7.856;2022-12-04T01:11:23;0.00;99.90
5556;DHT22;2801;50.972;7.856;2022-12-04T01:13:51;0.00;99.90
5556;DHT22;2801;50.972;7.856;2022-12-04T01:16:22;0.00;99.90
5556;DHT22;2801;50.972;7.856;2022-12-04T01:18:52;0.00;99.90
5556;DHT22;2801;50.972;7.856;2022-12-04T01:21:19;0.00;99.90
5556;DHT22;2801;50.972;7.856;2022-12-04T01:23:46;0.00;99.90
5556;DHT22;2801;50.972;7.856;2022-12-04T01:26:13;0.00;99.90
5556;DHT22;2801;50.972;7.856;2022-12-04T01:28:40;0.00;99.90
5556;DHT22;2801;50.972;7.856;2022-12-04T01:31:10;0.00;99.90
5556;DHT22;2801;50.972;7.856;2022-12-04T01:33:42;0.10;99.90
5556;DHT22;2801;50.972;7.856;2022-12-04T01:36:12;0.10;99.90
5556;DHT22;2801;50.972;7.856;2022-12-04T01:38:44;0.20;99.90
5556;DHT22;2801;50.972;7.856;2022-12-04T01:41:12;0.00;99.90
5556;DHT22;2801;50.972;7.856;2022-12-04T01:43:41;-0.10;99.90
5556;DHT22;2801;50.972;7.856;2022-12-04T01:46:09;-0.10;99.90
5556;DHT22;2801;50.972;7.856;2022-12-04T01:48:48;-0.20;99.90
5556;DHT22;2801;50.972;7.856;2022-12-04T01:51:28;-0.20;99.90
5556;DHT22;2801;50.972;7.856;2022-12-04T01:54:21;-0.30;99.90
5556;DHT22;2801;50.972;7.856;2022-12-04T01:57:07;-0.30;99.90
5556;DHT22;2801;50.972;7.856;2022-12-04T01:59:44;-0.30;99.90
5556;DHT22;2801;50.972;7.856;2022-12-04T02:02:16;-0.30;99.90
5556;DHT22;2801;50.972;7.856;2022-12-04T02:04:48;-0.20;99.90
5556;DHT22;2801;50.972;7.856;2022-12-04T02:07:16;-0.30;99.90
5556;DHT22;2801;50.972;7.856;2022-12-04T02:09:46;-0.30;99.90
5556;DHT22;2801;50.972;7.856;2022-12-04T02:18:15;-0.40;99.90
5556;DHT22;2801;50.972;7.856;2022-12-04T02:26:52;-0.50;99.90
5556;DHT22;2801;50.972;7.856;2022-12-04T02:29:51;-0.50;99.90
5556;DHT22;2801;50.972;7.856;2022-12-04T02:32:46;-0.50;99.90
5556;DHT22;2801;50.972;7.856;2022-12-04T02:35:29;-0.40;99.90
5556;DHT22;2801;50.972;7.856;2022-12-04T02:38:09;-0.20;99.90
5556;DHT22;2801;50.972;7.856;2022-12-04T02:41:07;-0.40;99.90
5556;DHT22;2801;50.972;7.856;2022-12-04T02:43:49;-0.40;99.90
5556;DHT22;2801;50.972;7.856;2022-12-04T02:46:41;-0.50;99.90
5556;DHT22;2801;50.972;7.856;2022-12-04T02:49:16;-0.50;99.90
5556;DHT22;2801;50.972;7.856;2022-12-04T02:51:47;-0.60;99.90
5556;DHT22;2801;50.972;7.856;2022-12-04T02:54:32;-0.60;99.90
5556;DHT22;2801;50.972;7.856;2022-12-04T02:57:03;-0.60;99.90
5556;DHT22;2801;50.972;7.856;2022-12-04T02:59:39;-0.50;99.90
5556;DHT22;2801;50.972;7.856;2022-12-04T03:02:13;-0.50;99.90
5556;DHT22;2801;50.972;7.856;2022-12-04T03:04:49;-0.50;99.90
5556;DHT22;2801;50.972;7.856;2022-12-04T03:07:23;-0.50;99.90
5556;DHT22;2801;50.972;7.856;2022-12-04T03:10:04;-0.50;99.90
5556;DHT22;2801;50.972;7.856;2022-12-04T03:12:52;-0.60;99.90
5556;DHT22;2801;50.972;7.856;2022-12-04T03:15:29;-0.60;99.90
5556;DHT22;2801;50.972;7.856;2022-12-04T03:18:05;-0.60;99.90
5556;DHT22;2801;50.972;7.856;2022-12-04T03:20:36;-0.60;99.90
5556;DHT22;2801;50.972;7.856;2022-12-04T03:23:34;-0.60;99.90
5556;DHT22;2801;50.972;7.856;2022-12-04T03:26:36;-0.60;99.90
5556;DHT22;2801;50.972;7.856;2022-12-04T03:32:09;-0.70;99.90
5556;DHT22;2801;50.972;7.856;2022-12-04T03:34:54;-0.70;99.90
5556;DHT22;2801;50.972;7.856;2022-12-04T03:40:35;-0.80;99.90
5556;DHT22;2801;50.972;7.856;2022-12-04T03:43:33;-0.70;99.90
5556;DHT22;2801;50.972;7.856;2022-12-04T03:46:13;-0.80;99.90
5556;DHT22;2801;50.972;7.856;2022-12-04T03:52:16;-0.80;99.90
5556;DHT22;2801;50.972;7.856;2022-12-04T03:55:14;-0.90;99.90
5556;DHT22;2801;50.972;7.856;2022-12-04T03:57:47;-0.80;99.90
5556;DHT22;2801;50.972;7.856;2022-12-04T04:00:19;-0.90;99.90
5556;DHT22;2801;50.972;7.856;2022-12-04T04:02:56;-0.80;99.90
5556;DHT22;2801;50.972;7.856;2022-12-04T04:05:29;-0.80;99.90
5556;DHT22;2801;50.972;7.856;2022-12-04T04:08:01;-0.80;99.90
5556;DHT22;2801;50.972;7.856;2022-12-04T04:10:51;-0.80;99.90
5556;DHT22;2801;50.972;7.856;2022-12-04T04:13:25;-0.70;99.90
5556;DHT22;2801;50.972;7.856;2022-12-04T04:16:19;-0.70;99.90
5556;DHT22;2801;50.972;7.856;2022-12-04T04:19:07;-0.70;99.90
5556;DHT22;2801;50.972;7.856;2022-12-04T04:21:57;-0.80;99.90
5556;DHT22;2801;50.972;7.856;2022-12-04T04:25:20;-0.80;99.90
5556;DHT22;2801;50.972;7.856;2022-12-04T04:27:40;-0.80;99.90
5556;DHT22;2801;50.972;7.856;2022-12-04T04:30:07;-0.80;99.90
5556;DHT22;2801;50.972;7.856;2022-12-04T04:32:58;-0.90;99.90
5556;DHT22;2801;50.972;7.856;2022-12-04T04:35:40;-0.80;99.90
5556;DHT22;2801;50.972;7.856;2022-12-04T04:38:27;-0.80;99.90
5556;DHT22;2801;50.972;7.856;2022-12-04T04:41:16;-0.80;99.90
5556;DHT22;2801;50.972;7.856;2022-12-04T04:44:15;-0.80;99.90
5556;DHT22;2801;50.972;7.856;2022-12-04T04:46:54;-0.80;99.90
5556;DHT22;2801;50.972;7.856;2022-12-04T04:49:27;-0.70;99.90
5556;DHT22;2801;50.972;7.856;2022-12-04T04:51:58;-0.70;99.90
5556;DHT22;2801;50.972;7.856;2022-12-04T04:54:28;-0.70;99.90
5556;DHT22;2801;50.972;7.856;2022-12-04T04:56:56;-0.70;99.90
5556;DHT22;2801;50.972;7.856;2022-12-04T04:59:23;-0.70;99.90
5556;DHT22;2801;50.972;7.856;2022-12-04T05:01:50;-0.70;99.90
5556;DHT22;2801;50.972;7.856;2022-12-04T05:04:17;-0.80;99.90
5556;DHT22;2801;50.972;7.856;2022-12-04T05:06:43;-0.80;99.90
5556;DHT22;2801;50.972;7.856;2022-12-04T05:09:10;-0.80;99.90
5556;DHT22;2801;50.972;7.856;2022-12-04T05:11:37;-0.80;99.90
5556;DHT22;2801;50.972;7.856;2022-12-04T05:14:04;-0.70;99.90
5556;DHT22;2801;50.972;7.856;2022-12-04T05:16:31;-0.80;99.90
5556;DHT22;2801;50.972;7.856;2022-12-04T05:18:58;-0.70;99.90
5556;DHT22;2801;50.972;7.856;2022-12-04T05:21:44;-0.70;99.90
5556;DHT22;2801;50.972;7.856;2022-12-04T05:24:11;-0.70;99.90
5556;DHT22;2801;50.972;7.856;2022-12-04T05:26:38;-0.70;99.90
5556;DHT22;2801;50.972;7.856;2022-12-04T05:29:05;-0.70;99.90
5556;DHT22;2801;50.972;7.856;2022-12-04T05:31:32;-0.70;99.90
5556;DHT22;2801;50.972;7.856;2022-12-04T05:33:59;-0.60;99.90
5556;DHT22;2801;50.972;7.856;2022-12-04T05:36:26;-0.60;99.90
5556;DHT22;2801;50.972;7.856;2022-12-04T05:38:52;-0.60;99.90
5556;DHT22;2801;50.972;7.856;2022-12-04T05:41:19;-0.60;99.90
5556;DHT22;2801;50.972;7.856;2022-12-04T05:43:46;-0.70;99.90
5556;DHT22;2801;50.972;7.856;2022-12-04T05:46:13;-0.60;99.90
5556;DHT22;2801;50.972;7.856;2022-12-04T05:48:40;-0.50;99.90
5556;DHT22;2801;50.972;7.856;2022-12-04T05:51:08;-0.50;99.90
5556;DHT22;2801;50.972;7.856;2022-12-04T05:53:36;-0.50;99.90
5556;DHT22;2801;50.972;7.856;2022-12-04T05:56:04;-0.50;99.90
5556;DHT22;2801;50.972;7.856;2022-12-04T05:58:36;-0.50;99.90
5556;DHT22;2801;50.972;7.856;2022-12-04T06:01:17;-0.50;99.90
5556;DHT22;2801;50.972;7.856;2022-12-04T06:03:45;-0.60;99.90
5556;DHT22;2801;50.972;7.856;2022-12-04T06:06:16;-0.60;99.90
5556;DHT22;2801;50.972;7.856;2022-12-04T06:08:49;-0.50;99.90
5556;DHT22;2801;50.972;7.856;2022-12-04T06:11:22;-0.60;99.90
5556;DHT22;2801;50.972;7.856;2022-12-04T06:13:52;-0.60;99.90
5556;DHT22;2801;50.972;7.856;2022-12-04T06:16:24;-0.60;99.90
5556;DHT22;2801;50.972;7.856;2022-12-04T06:19:00;-0.60;99.90
5556;DHT22;2801;50.972;7.856;2022-12-04T06:21:31;-0.50;99.90
5556;DHT22;2801;50.972;7.856;2022-12-04T06:23:59;-0.50;99.90
5556;DHT22;2801;50.972;7.856;2022-12-04T06:26:27;-0.50;99.90
5556;DHT22;2801;50.972;7.856;2022-12-04T06:28:56;-0.50;99.90
5556;DHT22;2801;50.972;7.856;2022-12-04T06:31:25;-0.50;99.90
5556;DHT22;2801;50.972;7.856;2022-12-04T06:33:54;-0.50;99.90
5556;DHT22;2801;50.972;7.856;2022-12-04T06:36:22;-0.50;99.90
5556;DHT22;2801;50.972;7.856;2022-12-04T06:38:51;-0.50;99.90
5556;DHT22;2801;50.972;7.856;2022-12-04T06:41:20;-0.40;99.90
5556;DHT22;2801;50.972;7.856;2022-12-04T06:43:48;-0.40;99.90
5556;DHT22;2801;50.972;7.856;2022-12-04T06:46:20;-0.50;99.90
5556;DHT22;2801;50.972;7.856;2022-12-04T06:48:59;-0.40;99.90
5556;DHT22;2801;50.972;7.856;2022-12-04T06:51:32;-0.40;99.90
5556;DHT22;2801;50.972;7.856;2022-12-04T06:54:01;-0.40;99.90
5556;DHT22;2801;50.972;7.856;2022-12-04T06:56:30;-0.40;99.90
5556;DHT22;2801;50.972;7.856;2022-12-04T06:58:59;-0.40;99.90
5556;DHT22;2801;50.972;7.856;2022-12-04T07:01:29;-0.30;99.90
5556;DHT22;2801;50.972;7.856;2022-12-04T07:03:57;-0.40;99.90
5556;DHT22;2801;50.972;7.856;2022-12-04T07:06:31;-0.40;99.90
5556;DHT22;2801;50.972;7.856;2022-12-04T07:09:07;-0.40;99.90
5556;DHT22;2801;50.972;7.856;2022-12-04T07:11:36;-0.30;99.90
5556;DHT22;2801;50.972;7.856;2022-12-04T07:14:05;-0.40;99.90
5556;DHT22;2801;50.972;7.856;2022-12-04T07:16:32;-0.40;99.90
5556;DHT22;2801;50.972;7.856;2022-12-04T07:19:08;-0.40;99.90
5556;DHT22;2801;50.972;7.856;2022-12-04T07:21:36;-0.40;99.90
5556;DHT22;2801;50.972;7.856;2022-12-04T07:24:02;-0.40;99.90
5556;DHT22;2801;50.972;7.856;2022-12-04T07:26:30;-0.30;99.90
5556;DHT22;2801;50.972;7.856;2022-12-04T07:28:58;-0.30;99.90
5556;DHT22;2801;50.972;7.856;2022-12-04T07:31:26;-0.10;99.90
5556;DHT22;2801;50.972;7.856;2022-12-04T07:33:55;-0.30;99.90
5556;DHT22;2801;50.972;7.856;2022-12-04T07:36:23;-0.40;99.90
5556;DHT22;2801;50.972;7.856;2022-12-04T07:38:54;-0.40;99.90
5556;DHT22;2801;50.972;7.856;2022-12-04T07:41:21;-0.40;99.90
5556;DHT22;2801;50.972;7.856;2022-12-04T07:43:49;-0.30;99.90
5556;DHT22;2801;50.972;7.856;2022-12-04T07:46:21;-0.30;99.90
5556;DHT22;2801;50.972;7.856;2022-12-04T07:48:51;-0.30;99.90
5556;DHT22;2801;50.972;7.856;2022-12-04T07:51:20;-0.30;99.90
5556;DHT22;2801;50.972;7.856;2022-12-04T07:53:50;-0.30;99.90
5556;DHT22;2801;50.972;7.856;2022-12-04T07:56:19;-0.30;99.90
5556;DHT22;2801;50.972;7.856;2022-12-04T07:58:46;-0.20;99.90
5556;DHT22;2801;50.972;7.856;2022-12-04T08:01:15;-0.20;99.90
5556;DHT22;2801;50.972;7.856;2022-12-04T08:03:46;-0.20;99.90
5556;DHT22;2801;50.972;7.856;2022-12-04T08:06:16;-0.20;99.90
5556;DHT22;2801;50.972;7.856;2022-12-04T08:08:44;-0.20;99.90
5556;DHT22;2801;50.972;7.856;2022-12-04T08:11:15;-0.10;99.90
5556;DHT22;2801;50.972;7.856;2022-12-04T08:13:44;-0.10;99.90
5556;DHT22;2801;50.972;7.856;2022-12-04T08:16:12;-0.10;99.90
5556;DHT22;2801;50.972;7.856;2022-12-04T08:18:40;0.20;99.90
5556;DHT22;2801;50.972;7.856;2022-12-04T08:21:14;0.00;99.90
5556;DHT22;2801;50.972;7.856;2022-12-04T08:23:43;0.00;99.90
5556;DHT22;2801;50.972;7.856;2022-12-04T08:26:11;0.10;99.90
5556;DHT22;2801;50.972;7.856;2022-12-04T08:28:40;0.00;99.90
5556;DHT22;2801;50.972;7.856;2022-12-04T08:31:09;0.00;99.90
5556;DHT22;2801;50.972;7.856;2022-12-04T08:33:39;0.10;99.90
5556;DHT22;2801;50.972;7.856;2022-12-04T08:36:09;0.10;99.90
5556;DHT22;2801;50.972;7.856;2022-12-04T08:38:38;0.20;99.90
5556;DHT22;2801;50.972;7.856;2022-12-04T08:41:07;0.20;99.90
5556;DHT22;2801;50.972;7.856;2022-12-04T08:43:37;0.20;99.90
5556;DHT22;2801;50.972;7.856;2022-12-04T08:46:07;0.20;99.90
5556;DHT22;2801;50.972;7.856;2022-12-04T08:48:36;0.20;99.90
5556;DHT22;2801;50.972;7.856;2022-12-04T08:51:03;0.10;99.90
5556;DHT22;2801;50.972;7.856;2022-12-04T08:53:34;0.10;99.90
5556;DHT22;2801;50.972;7.856;2022-12-04T08:56:04;0.20;99.90
5556;DHT22;2801;50.972;7.856;2022-12-04T08:58:32;0.20;99.90
5556;DHT22;2801;50.972;7.856;2022-12-04T09:01:07;0.50;99.90
5556;DHT22;2801;50.972;7.856;2022-12-04T09:03:36;0.20;99.90
5556;DHT22;2801;50.972;7.856;2022-12-04T09:06:05;0.30;99.90
5556;DHT22;2801;50.972;7.856;2022-12-04T09:08:33;0.40;99.90
5556;DHT22;2801;50.972;7.856;2022-12-04T09:13:35;0.30;99.90
5556;DHT22;2801;50.972;7.856;2022-12-04T09:16:04;0.30;99.90
5556;DHT22;2801;50.972;7.856;2022-12-04T09:18:34;0.40;99.90
5556;DHT22;2801;50.972;7.856;2022-12-04T09:21:05;0.30;99.90
5556;DHT22;2801;50.972;7.856;2022-12-04T09:23:34;0.30;99.90
5556;DHT22;2801;50.972;7.856;2022-12-04T09:26:03;0.30;99.90
5556;DHT22;2801;50.972;7.856;2022-12-04T09:28:32;0.40;99.90
5556;DHT22;2801;50.972;7.856;2022-12-04T09:31:04;0.40;99.90
5556;DHT22;2801;50.972;7.856;2022-12-04T09:33:31;0.40;99.90
5556;DHT22;2801;50.972;7.856;2022-12-04T09:35:59;0.30;99.90
5556;DHT22;2801;50.972;7.856;2022-12-04T09:38:28;0.40;99.90
5556;DHT22;2801;50.972;7.856;2022-12-04T09:41:22;0.40;99.90
5556;DHT22;2801;50.972;7.856;2022-12-04T09:47:08;0.50;99.90
5556;DHT22;2801;50.972;7.856;2022-12-04T09:53:14;0.60;99.90
5556;DHT22;2801;50.972;7.856;2022-12-04T10:01:22;0.80;99.90
5556;DHT22;2801;50.972;7.856;2022-12-04T10:03:53;0.80;99.90
5556;DHT22;2801;50.972;7.856;2022-12-04T10:06:38;0.80;99.90
5556;DHT22;2801;50.972;7.856;2022-12-04T10:15:06;0.80;99.90
5556;DHT22;2801;50.972;7.856;2022-12-04T10:18:25;0.80;99.90
5556;DHT22;2801;50.972;7.856;2022-12-04T10:27:07;0.80;99.90
5556;DHT22;2801;50.972;7.856;2022-12-04T10:29:39;0.80;99.90
5556;DHT22;2801;50.972;7.856;2022-12-04T10:34:55;0.90;99.90
5556;DHT22;2801;50.972;7.856;2022-12-04T10:37:25;1.00;99.90
5556;DHT22;2801;50.972;7.856;2022-12-04T10:40:05;0.90;99.90
5556;DHT22;2801;50.972;7.856;2022-12-04T10:45:24;0.90;99.90
5556;DHT22;2801;50.972;7.856;2022-12-04T10:47:52;0.80;99.90
5556;DHT22;2801;50.972;7.856;2022-12-04T10:50:21;1.00;99.90
5556;DHT22;2801;50.972;7.856;2022-12-04T10:52:50;1.00;99.90
5556;DHT22;2801;50.972;7.856;2022-12-04T10:55:32;0.90;99.90
5556;DHT22;2801;50.972;7.856;2022-12-04T10:58:00;1.00;99.90
5556;DHT22;2801;50.972;7.856;2022-12-04T11:00:30;0.90;99.90
5556;DHT22;2801;50.972;7.856;2022-12-04T11:03:08;1.00;99.90
5556;DHT22;2801;50.972;7.856;2022-12-04T11:05:58;1.00;99.90
5556;DHT22;2801;50.972;7.856;2022-12-04T11:08:49;1.00;99.90
5556;DHT22;2801;50.972;7.856;2022-12-04T11:11:23;1.00;99.90
5556;DHT22;2801;50.972;7.856;2022-12-04T11:14:11;1.10;99.90
5556;DHT22;2801;50.972;7.856;2022-12-04T11:16:46;1.10;99.90
5556;DHT22;2801;50.972;7.856;2022-12-04T11:19:24;1.10;99.90
5556;DHT22;2801;50.972;7.856;2022-12-04T11:21:55;1.20;99.90
5556;DHT22;2801;50.972;7.856;2022-12-04T11:24:28;1.10;99.90
5556;DHT22;2801;50.972;7.856;2022-12-04T11:27:02;1.20;99.90
5556;DHT22;2801;50.972;7.856;2022-12-04T11:29:41;1.30;99.90
5556;DHT22;2801;50.972;7.856;2022-12-04T11:32:23;1.40;99.90
5556;DHT22;2801;50.972;7.856;2022-12-04T11:34:56;1.40;99.90
5556;DHT22;2801;50.972;7.856;2022-12-04T11:37:30;1.50;99.90
5556;DHT22;2801;50.972;7.856;2022-12-04T11:40:02;1.40;99.90
5556;DHT22;2801;50.972;7.856;2022-12-04T11:42:33;1.30;99.90
5556;DHT22;2801;50.972;7.856;2022-12-04T11:45:18;1.30;99.90
5556;DHT22;2801;50.972;7.856;2022-12-04T11:48:02;1.30;99.90
5556;DHT22;2801;50.972;7.856;2022-12-04T11:59:27;1.50;99.90
5556;DHT22;2801;50.972;7.856;2022-12-04T12:04:58;1.40;99.90
5556;DHT22;2801;50.972;7.856;2022-12-04T12:10:44;1.50;99.90
5556;DHT22;2801;50.972;7.856;2022-12-04T12:19:53;1.40;99.90
5556;DHT22;2801;50.972;7.856;2022-12-04T12:22:39;1.50;99.90
5556;DHT22;2801;50.972;7.856;2022-12-04T12:40:34;1.50;99.90
5556;DHT22;2801;50.972;7.856;2022-12-04T12:43:13;1.50;99.90
5556;DHT22;2801;50.972;7.856;2022-12-04T12:46:06;1.50;99.90
5556;DHT22;2801;50.972;7.856;2022-12-04T12:51:33;1.60;99.90
5556;DHT22;2801;50.972;7.856;2022-12-04T12:56:50;1.70;99.90
5556;DHT22;2801;50.972;7.856;2022-12-04T12:59:26;1.70;99.90
5556;DHT22;2801;50.972;7.856;2022-12-04T13:02:11;1.70;99.90
5556;DHT22;2801;50.972;7.856;2022-12-04T13:04:52;1.80;99.90
5556;DHT22;2801;50.972;7.856;2022-12-04T13:07:25;1.80;99.90
5556;DHT22;2801;50.972;7.856;2022-12-04T13:10:05;1.80;99.90
5556;DHT22;2801;50.972;7.856;2022-12-04T13:12:50;1.80;99.90
5556;DHT22;2801;50.972;7.856;2022-12-04T13:15:27;1.90;99.90
5556;DHT22;2801;50.972;7.856;2022-12-04T13:18:01;2.10;99.90
5556;DHT22;2801;50.972;7.856;2022-12-04T13:20:34;1.90;99.90
5556;DHT22;2801;50.972;7.856;2022-12-04T13:29:48;1.90;99.90
5556;DHT22;2801;50.972;7.856;2022-12-04T13:38:55;1.90;99.90
5556;DHT22;2801;50.972;7.856;2022-12-04T13:41:25;1.90;99.90
5556;DHT22;2801;50.972;7.856;2022-12-04T13:43:54;2.10;99.90
5556;DHT22;2801;50.972;7.856;2022-12-04T13:46:36;1.90;99.90
5556;DHT22;2801;50.972;7.856;2022-12-04T13:51:54;1.80;99.90
5556;DHT22;2801;50.972;7.856;2022-12-04T13:54:32;1.80;99.90
5556;DHT22;2801;50.972;7.856;2022-12-04T13:59:42;1.90;99.90
5556;DHT22;2801;50.972;7.856;2022-12-04T14:02:30;1.90;99.90
5556;DHT22;2801;50.972;7.856;2022-12-04T14:05:11;1.80;99.90
5556;DHT22;2801;50.972;7.856;2022-12-04T14:07:57;1.80;99.90
5556;DHT22;2801;50.972;7.856;2022-12-04T14:10:35;1.80;99.90
5556;DHT22;2801;50.972;7.856;2022-12-04T14:13:17;1.80;99.90
5556;DHT22;2801;50.972;7.856;2022-12-04T14:15:47;1.80;99.90
5556;DHT22;2801;50.972;7.856;2022-12-04T14:18:26;1.80;99.90
5556;DHT22;2801;50.972;7.856;2022-12-04T14:21:03;1.90;99.90
5556;DHT22;2801;50.972;7.856;2022-12-04T14:23:39;1.90;99.90
5556;DHT22;2801;50.972;7.856;2022-12-04T14:26:46;1.90;99.90
5556;DHT22;2801;50.972;7.856;2022-12-04T14:29:45;1.80;99.90
5556;DHT22;2801;50.972;7.856;2022-12-04T14:32:30;1.80;99.90
5556;DHT22;2801;50.972;7.856;2022-12-04T14:35:01;1.80;99.90
5556;DHT22;2801;50.972;7.856;2022-12-04T14:37:33;1.80;99.90
5556;DHT22;2801;50.972;7.856;2022-12-04T14:40:04;1.80;99.90
5556;DHT22;2801;50.972;7.856;2022-12-04T14:42:36;1.80;99.90
5556;DHT22;2801;50.972;7.856;2022-12-04T14:45:36;1.80;99.90
5556;DHT22;2801;50.972;7.856;2022-12-04T14:48:32;1.70;99.90
5556;DHT22;2801;50.972;7.856;2022-12-04T14:51:30;1.80;99.90
5556;DHT22;2801;50.972;7.856;2022-12-04T14:54:37;1.80;99.90
5556;DHT22;2801;50.972;7.856;2022-12-04T14:59:51;1.80;99.90
5556;DHT22;2801;50.972;7.856;2022-12-04T15:02:43;1.80;99.90
5556;DHT22;2801;50.972;7.856;2022-12-04T15:05:11;1.80;99.90
5556;DHT22;2801;50.972;7.856;2022-12-04T15:07:49;1.80;99.90
5556;DHT22;2801;50.972;7.856;2022-12-04T15:10:23;1.80;99.90
5556;DHT22;2801;50.972;7.856;2022-12-04T15:13:10;1.70;99.90
5556;DHT22;2801;50.972;7.856;2022-12-04T15:15:45;1.70;99.90
5556;DHT22;2801;50.972;7.856;2022-12-04T15:18:15;1.70;99.90
5556;DHT22;2801;50.972;7.856;2022-12-04T15:23:28;1.70;99.90
5556;DHT22;2801;50.972;7.856;2022-12-04T15:25:59;1.70;99.90
5556;DHT22;2801;50.972;7.856;2022-12-04T15:29:02;1.60;99.90
5556;DHT22;2801;50.972;7.856;2022-12-04T15:31:35;1.60;99.90
5556;DHT22;2801;50.972;7.856;2022-12-04T15:34:12;1.70;99.90
5556;DHT22;2801;50.972;7.856;2022-12-04T15:36:49;1.60;99.90
5556;DHT22;2801;50.972;7.856;2022-12-04T15:39:23;1.70;99.90
5556;DHT22;2801;50.972;7.856;2022-12-04T15:42:02;1.70;99.90
5556;DHT22;2801;50.972;7.856;2022-12-04T15:44:54;1.70;99.90
5556;DHT22;2801;50.972;7.856;2022-12-04T15:48:03;1.70;99.90
5556;DHT22;2801;50.972;7.856;2022-12-04T15:50:25;1.80;99.90
5556;DHT22;2801;50.972;7.856;2022-12-04T15:53:07;1.80;99.90
5556;DHT22;2801;50.972;7.856;2022-12-04T15:55:51;1.80;99.90
5556;DHT22;2801;50.972;7.856;2022-12-04T15:58:27;1.90;99.90
5556;DHT22;2801;50.972;7.856;2022-12-04T16:01:04;1.90;99.90
5556;DHT22;2801;50.972;7.856;2022-12-04T16:06:17;1.90;99.90
5556;DHT22;2801;50.972;7.856;2022-12-04T16:11:34;1.90;99.90
5556;DHT22;2801;50.972;7.856;2022-12-04T16:14:16;1.90;99.90
5556;DHT22;2801;50.972;7.856;2022-12-04T16:16:49;1.90;99.90
5556;DHT22;2801;50.972;7.856;2022-12-04T16:19:28;1.90;99.90
5556;DHT22;2801;50.972;7.856;2022-12-04T16:21:55;1.90;99.90
5556;DHT22;2801;50.972;7.856;2022-12-04T16:24:23;1.90;99.90
5556;DHT22;2801;50.972;7.856;2022-12-04T16:26:52;1.90;99.90
5556;DHT22;2801;50.972;7.856;2022-12-04T16:29:23;1.90;99.90
5556;DHT22;2801;50.972;7.856;2022-12-04T16:31:50;1.90;99.90
5556;DHT22;2801;50.972;7.856;2022-12-04T16:34:17;1.90;99.90
5556;DHT22;2801;50.972;7.856;2022-12-04T16:36:44;1.90;99.90
5556;DHT22;2801;50.972;7.856;2022-12-04T16:39:11;1.90;99.90
5556;DHT22;2801;50.972;7.856;2022-12-04T16:41:39;1.90;99.90
5556;DHT22;2801;50.972;7.856;2022-12-04T16:44:12;1.90;99.90
5556;DHT22;2801;50.972;7.856;2022-12-04T16:46:41;1.80;99.90
5556;DHT22;2801;50.972;7.856;2022-12-04T16:49:12;1.90;99.90
5556;DHT22;2801;50.972;7.856;2022-12-04T16:51:42;1.80;99.90
5556;DHT22;2801;50.972;7.856;2022-12-04T16:54:15;1.80;99.90
5556;DHT22;2801;50.972;7.856;2022-12-04T16:56:42;1.80;99.90
5556;DHT22;2801;50.972;7.856;2022-12-04T16:59:09;1.80;99.90
5556;DHT22;2801;50.972;7.856;2022-12-04T17:01:45;1.80;99.90
5556;DHT22;2801;50.972;7.856;2022-12-04T17:04:14;1.80;99.90
5556;DHT22;2801;50.972;7.856;2022-12-04T17:06:43;1.80;99.90
5556;DHT22;2801;50.972;7.856;2022-12-04T17:09:11;1.80;99.90
5556;DHT22;2801;50.972;7.856;2022-12-04T17:11:38;1.70;99.90
5556;DHT22;2801;50.972;7.856;2022-12-04T17:14:05;1.70;99.90
5556;DHT22;2801;50.972;7.856;2022-12-04T17:16:34;1.80;99.90
5556;DHT22;2801;50.972;7.856;2022-12-04T17:19:03;1.80;99.90
5556;DHT22;2801;50.972;7.856;2022-12-04T17:21:30;1.80;99.90
5556;DHT22;2801;50.972;7.856;2022-12-04T17:23:57;1.80;99.90
5556;DHT22;2801;50.972;7.856;2022-12-04T17:26:25;1.70;99.90
5556;DHT22;2801;50.972;7.856;2022-12-04T17:28:52;1.70;99.90
5556;DHT22;2801;50.972;7.856;2022-12-04T17:31:25;1.70;99.90
5556;DHT22;2801;50.972;7.856;2022-12-04T17:33:52;1.80;99.90
5556;DHT22;2801;50.972;7.856;2022-12-04T17:36:21;1.80;99.90
5556;DHT22;2801;50.972;7.856;2022-12-04T17:38:56;1.80;99.90
5556;DHT22;2801;50.972;7.856;2022-12-04T17:41:24;1.80;99.90
5556;DHT22;2801;50.972;7.856;2022-12-04T17:43:51;1.80;99.90
5556;DHT22;2801;50.972;7.856;2022-12-04T17:46:20;1.80;99.90
5556;DHT22;2801;50.972;7.856;2022-12-04T17:48:50;1.80;99.90
5556;DHT22;2801;50.972;7.856;2022-12-04T17:51:22;1.80;99.90
5556;DHT22;2801;50.972;7.856;2022-12-04T17:53:50;1.80;99.90
5556;DHT22;2801;50.972;7.856;2022-12-04T17:56:22;1.80;99.90
5556;DHT22;2801;50.972;7.856;2022-12-04T17:58:50;1.80;99.90
5556;DHT22;2801;50.972;7.856;2022-12-04T18:01:22;1.80;99.90
5556;DHT22;2801;50.972;7.856;2022-12-04T18:03:55;1.90;99.90
5556;DHT22;2801;50.972;7.856;2022-12-04T18:06:29;1.80;99.90
5556;DHT22;2801;50.972;7.856;2022-12-04T18:08:58;1.90;99.90
5556;DHT22;2801;50.972;7.856;2022-12-04T18:11:27;1.80;99.90
5556;DHT22;2801;50.972;7.856;2022-12-04T18:13:58;1.80;99.90
5556;DHT22;2801;50.972;7.856;2022-12-04T18:16:38;1.80;99.90
5556;DHT22;2801;50.972;7.856;2022-12-04T18:19:11;1.90;99.90
5556;DHT22;2801;50.972;7.856;2022-12-04T18:21:38;1.80;99.90
5556;DHT22;2801;50.972;7.856;2022-12-04T18:24:05;1.90;99.90
5556;DHT22;2801;50.972;7.856;2022-12-04T18:26:39;1.90;99.90
5556;DHT22;2801;50.972;7.856;2022-12-04T18:29:10;1.90;99.90
5556;DHT22;2801;50.972;7.856;2022-12-04T18:31:39;1.90;99.90
5556;DHT22;2801;50.972;7.856;2022-12-04T18:34:07;1.90;99.90
5556;DHT22;2801;50.972;7.856;2022-12-04T18:36:35;1.90;99.90
5556;DHT22;2801;50.972;7.856;2022-12-04T18:39:06;1.90;99.90
5556;DHT22;2801;50.972;7.856;2022-12-04T18:41:39;1.90;99.90
5556;DHT22;2801;50.972;7.856;2022-12-04T18:44:06;2.00;99.90
5556;DHT22;2801;50.972;7.856;2022-12-04T18:46:33;1.90;99.90
5556;DHT22;2801;50.972;7.856;2022-12-04T18:49:01;1.90;99.90
5556;DHT22;2801;50.972;7.856;2022-12-04T18:51:34;1.90;99.90
5556;DHT22;2801;50.972;7.856;2022-12-04T18:54:06;1.90;99.90
5556;DHT22;2801;50.972;7.856;2022-12-04T18:56:35;1.90;99.90
5556;DHT22;2801;50.972;7.856;2022-12-04T18:59:06;1.90;99.90
5556;DHT22;2801;50.972;7.856;2022-12-04T19:01:33;2.00;99.90
5556;DHT22;2801;50.972;7.856;2022-12-04T19:04:04;2.00;99.90